Time;durP1;ratioP1;P1;durP2;ratioP2;P2;SDS_P1;SDS_P2;PMS_P1;PMS_P2;Temp;Humidity;BMP_temperature;BMP_pressure;BME280_temperature;BME280_humidity;BME280_pressure;Samples;Min_cycle;Max_cycle;Signal;HPM_P1;HPM_P2
2024/02/11 00:00:50;;;;;;;29.77;14.98;;;;;;;;;;5077714;28;20040;-66
2024/02/11 00:03:18;;;;;;;23.52;13.68;;;;;;;;;;5074622;28;20488;-65
2024/02/11 00:05:44;;;;;;;28.40;14.07;;;;;;;;;;5068116;28;20149;-65
2024/02/11 00:08:10;;;;;;;23.42;14.10;;;;;;;;;;5057676;28;20041;-65
2024/02/11 00:10:36;;;;;;;22.13;13.60;;;;;;;;;;5054808;28;20024;-65
2024/02/11 00:13:03;;;;;;;26.45;15.20;;;;;;;;;;5058654;28;20394;-65
2024/02/11 00:15:29;;;;;;;24.90;14.35;;;;;;;;;;5071238;28;20032;-65
2024/02/11 00:17:54;;;;;;;25.67;14.73;;;;;;;;;;5072083;28;20028;-65
2024/02/11 00:20:20;;;;;;;29.50;13.75;;;;;;;;;;5068772;28;20088;-65
2024/02/11 00:22:48;;;;;;;31.08;14.73;;;;;;;;;;5066836;28;20143;-65
2024/02/11 00:25:14;;;;;;;23.98;12.32;;;;;;;;;;5073165;28;20427;-64
2024/02/11 00:27:44;;;;;;;20.48;12.82;;;;;;;;;;5057749;28;20040;-67
2024/02/11 00:30:10;;;;;;;28.60;12.70;;;;;;;;;;5067439;28;20050;-67
2024/02/11 00:32:37;;;;;;;26.05;13.77;;;;;;;;;;5071648;28;20025;-66
2024/02/11 00:35:03;;;;;;;19.90;12.90;;;;;;;;;;5072307;28;20051;-65
2024/02/11 00:37:29;;;;;;;29.40;14.25;;;;;;;;;;5068036;28;20035;-66
2024/02/11 00:39:58;;;;;;;18.40;11.48;;;;;;;;;;5068416;28;20036;-65
2024/02/11 00:42:27;;;;;;;27.17;13.05;;;;;;;;;;5066521;28;20028;-65
2024/02/11 00:44:54;;;;;;;22.55;11.95;;;;;;;;;;5075565;28;20051;-66
2024/02/11 00:47:20;;;;;;;21.08;12.88;;;;;;;;;;5072291;28;20055;-66
2024/02/11 00:49:47;;;;;;;19.55;12.57;;;;;;;;;;5080385;28;20020;-65
2024/02/11 00:52:15;;;;;;;24.65;12.75;;;;;;;;;;5068987;28;20032;-66
2024/02/11 00:54:41;;;;;;;23.10;13.35;;;;;;;;;;5075773;28;20449;-65
2024/02/11 00:57:07;;;;;;;26.17;15.20;;;;;;;;;;5070425;28;20051;-66
2024/02/11 00:59:34;;;;;;;28.98;14.32;;;;;;;;;;5072749;28;20025;-66
2024/02/11 01:02:00;;;;;;;28.25;14.43;;;;;;;;;;5047355;28;20021;-66
2024/02/11 01:04:26;;;;;;;22.67;13.40;;;;;;;;;;5068189;28;20024;-66
2024/02/11 01:06:53;;;;;;;21.08;13.02;;;;;;;;;;5070095;28;20032;-66
2024/02/11 01:09:20;;;;;;;23.73;12.68;;;;;;;;;;5072236;28;20032;-66
2024/02/11 01:11:50;;;;;;;19.75;12.63;;;;;;;;;;5069836;28;20021;-66
2024/02/11 01:14:18;;;;;;;26.45;13.75;;;;;;;;;;5072964;28;20436;-65
2024/02/11 01:16:44;;;;;;;26.52;13.52;;;;;;;;;;5066749;28;20394;-66
2024/02/11 01:19:11;;;;;;;21.00;13.18;;;;;;;;;;5059356;28;20032;-66
2024/02/11 01:21:37;;;;;;;30.13;14.52;;;;;;;;;;5048175;28;20020;-66
2024/02/11 01:24:03;;;;;;;25.27;12.32;;;;;;;;;;5069896;28;20388;-65
2024/02/11 01:26:29;;;;;;;25.15;13.88;;;;;;;;;;5069650;28;20032;-65
2024/02/11 01:28:55;;;;;;;29.27;13.75;;;;;;;;;;5071700;28;20024;-66
2024/02/11 01:31:22;;;;;;;24.83;13.30;;;;;;;;;;5067228;28;20037;-66
2024/02/11 01:33:49;;;;;;;22.98;13.77;;;;;;;;;;5054509;28;20048;-66
2024/02/11 01:36:15;;;;;;;28.70;14.23;;;;;;;;;;5069756;28;20033;-65
2024/02/11 01:38:41;;;;;;;25.30;13.68;;;;;;;;;;5068267;28;20029;-66
2024/02/11 01:41:07;;;;;;;27.90;14.50;;;;;;;;;;5069847;28;20028;-66
2024/02/11 01:43:33;;;;;;;20.63;14.13;;;;;;;;;;5063292;28;20017;-65
2024/02/11 01:45:59;;;;;;;31.58;15.02;;;;;;;;;;5066470;28;20040;-66
2024/02/11 01:48:30;;;;;;;19.83;12.20;;;;;;;;;;5065920;28;20458;-66
2024/02/11 01:50:57;;;;;;;25.63;15.35;;;;;;;;;;5074226;28;20024;-66
2024/02/11 01:53:24;;;;;;;21.73;13.15;;;;;;;;;;5061624;28;20050;-66
2024/02/11 01:55:50;;;;;;;25.85;14.32;;;;;;;;;;5063592;28;20024;-66
2024/02/11 01:58:16;;;;;;;26.20;13.68;;;;;;;;;;5064469;28;20028;-65
2024/02/11 02:00:43;;;;;;;23.92;13.50;;;;;;;;;;5068551;28;20029;-65
2024/02/11 02:03:09;;;;;;;27.73;13.75;;;;;;;;;;5061675;28;20128;-65
2024/02/11 02:05:37;;;;;;;29.50;13.75;;;;;;;;;;5065834;28;20075;-65
2024/02/11 02:08:04;;;;;;;23.73;14.60;;;;;;;;;;5066309;28;20068;-65
2024/02/11 02:10:31;;;;;;;21.60;12.40;;;;;;;;;;5065920;28;20036;-65
2024/02/11 02:12:57;;;;;;;25.63;14.38;;;;;;;;;;5067755;28;20031;-65
2024/02/11 02:15:24;;;;;;;23.65;13.32;;;;;;;;;;5068161;28;20390;-65
2024/02/11 02:17:50;;;;;;;22.17;14.35;;;;;;;;;;5066555;28;20047;-65
2024/02/11 02:20:16;;;;;;;29.70;14.43;;;;;;;;;;5073933;28;20024;-66
2024/02/11 02:22:42;;;;;;;19.92;12.82;;;;;;;;;;5058441;28;20013;-65
2024/02/11 02:25:09;;;;;;;26.75;11.73;;;;;;;;;;5069842;28;20040;-66
2024/02/11 02:27:37;;;;;;;23.77;12.85;;;;;;;;;;5070366;28;20028;-66
2024/02/11 02:30:05;;;;;;;18.88;11.50;;;;;;;;;;5071569;28;20028;-66
2024/02/11 02:32:31;;;;;;;22.45;12.15;;;;;;;;;;5072815;28;20525;-66
2024/02/11 02:34:57;;;;;;;21.60;11.80;;;;;;;;;;5072596;28;20067;-66
2024/02/11 02:37:23;;;;;;;18.67;11.60;;;;;;;;;;5070783;28;20028;-66
2024/02/11 02:39:49;;;;;;;24.05;12.50;;;;;;;;;;5072027;28;20021;-66
2024/02/11 02:42:15;;;;;;;22.02;11.77;;;;;;;;;;5069060;28;20592;-66
2024/02/11 02:44:42;;;;;;;25.30;13.48;;;;;;;;;;5066774;28;20483;-66
2024/02/11 02:47:11;;;;;;;21.60;12.45;;;;;;;;;;5074264;28;20032;-66
2024/02/11 02:49:37;;;;;;;25.55;12.90;;;;;;;;;;5072601;28;20030;-65
2024/02/11 02:52:06;;;;;;;20.25;11.48;;;;;;;;;;5070417;28;20401;-66
2024/02/11 02:54:32;;;;;;;17.90;12.13;;;;;;;;;;5054335;28;20032;-65
2024/02/11 02:56:58;;;;;;;22.45;11.70;;;;;;;;;;5051587;28;20505;-65
2024/02/11 02:59:25;;;;;;;15.15;10.20;;;;;;;;;;5074298;28;20531;-65
2024/02/11 03:01:54;;;;;;;22.33;11.43;;;;;;;;;;5071818;28;20402;-65
2024/02/11 03:04:20;;;;;;;20.98;11.85;;;;;;;;;;5067181;28;20028;-66
2024/02/11 03:06:47;;;;;;;24.48;11.63;;;;;;;;;;5073989;28;20653;-66
2024/02/11 03:09:13;;;;;;;23.45;11.35;;;;;;;;;;5075740;28;20027;-65
2024/02/11 03:11:40;;;;;;;20.08;11.73;;;;;;;;;;5052423;28;20037;-65
2024/02/11 03:14:06;;;;;;;26.30;13.00;;;;;;;;;;5069370;28;20029;-65
2024/02/11 03:16:32;;;;;;;23.98;12.15;;;;;;;;;;5067797;28;20046;-65
2024/02/11 03:18:58;;;;;;;19.33;12.55;;;;;;;;;;5069012;28;20116;-66
2024/02/11 03:21:24;;;;;;;24.80;12.80;;;;;;;;;;5074144;28;20021;-65
2024/02/11 03:23:50;;;;;;;20.67;11.98;;;;;;;;;;5067643;28;20021;-65
2024/02/11 03:26:16;;;;;;;23.27;13.13;;;;;;;;;;5075076;28;20067;-66
2024/02/11 03:28:42;;;;;;;22.80;13.18;;;;;;;;;;5062268;28;20052;-65
2024/02/11 03:31:09;;;;;;;19.92;12.07;;;;;;;;;;5069223;28;20449;-65
2024/02/11 03:33:35;;;;;;;21.13;13.25;;;;;;;;;;5067043;28;20024;-65
2024/02/11 03:36:01;;;;;;;25.35;13.50;;;;;;;;;;5066602;28;20040;-65
2024/02/11 03:38:27;;;;;;;25.92;12.68;;;;;;;;;;5069971;28;20025;-65
2024/02/11 03:40:54;;;;;;;30.40;13.13;;;;;;;;;;5074189;28;20043;-65
2024/02/11 03:43:21;;;;;;;21.05;11.05;;;;;;;;;;5064243;28;20112;-65
2024/02/11 03:45:47;;;;;;;21.25;13.60;;;;;;;;;;5066433;28;20130;-65
2024/02/11 03:48:18;;;;;;;21.05;12.10;;;;;;;;;;5077139;28;20409;-65
2024/02/11 03:50:45;;;;;;;17.67;11.63;;;;;;;;;;5066369;28;20107;-65
2024/02/11 03:53:12;;;;;;;17.17;12.40;;;;;;;;;;5067473;28;20111;-65
2024/02/11 03:55:38;;;;;;;21.27;13.05;;;;;;;;;;5075034;28;20512;-65
2024/02/11 03:58:04;;;;;;;22.20;13.07;;;;;;;;;;5054504;28;20024;-65
2024/02/11 04:00:33;;;;;;;23.75;13.63;;;;;;;;;;5073953;28;20016;-66
2024/02/11 04:02:59;;;;;;;23.95;13.63;;;;;;;;;;5071479;28;20502;-66
2024/02/11 04:05:28;;;;;;;22.20;12.55;;;;;;;;;;5072435;28;20425;-66
2024/02/11 04:07:55;;;;;;;24.80;14.07;;;;;;;;;;5070541;28;20044;-65
2024/02/11 04:10:28;;;;;;;21.65;13.73;;;;;;;;;;5068748;28;20047;-66
2024/02/11 04:12:54;;;;;;;23.88;12.65;;;;;;;;;;5074686;28;20078;-65
2024/02/11 04:15:23;;;;;;;25.10;13.60;;;;;;;;;;5067746;28;20112;-65
2024/02/11 04:18:07;;;;;;;22.42;13.75;;;;;;;;;;5068064;28;20056;-66
2024/02/11 04:20:33;;;;;;;27.00;13.73;;;;;;;;;;5053146;28;20074;-65
2024/02/11 04:23:00;;;;;;;28.33;13.38;;;;;;;;;;5067399;28;20035;-65
2024/02/11 04:25:30;;;;;;;26.00;14.43;;;;;;;;;;5071910;28;20034;-64
2024/02/11 04:27:56;;;;;;;26.70;14.05;;;;;;;;;;5066541;28;20406;-66
2024/02/11 04:30:22;;;;;;;23.13;14.15;;;;;;;;;;5066177;28;20025;-66
2024/02/11 04:32:48;;;;;;;26.45;14.13;;;;;;;;;;5073262;28;20390;-65
2024/02/11 04:35:15;;;;;;;21.58;14.05;;;;;;;;;;5071359;28;20037;-66
2024/02/11 04:37:49;;;;;;;26.05;15.02;;;;;;;;;;5072417;28;20025;-66
2024/02/11 04:40:15;;;;;;;29.90;15.18;;;;;;;;;;5067398;28;20028;-66
2024/02/11 04:42:42;;;;;;;41.42;17.40;;;;;;;;;;5068608;28;20020;-66
2024/02/11 04:45:08;;;;;;;38.65;18.30;;;;;;;;;;5070815;28;20043;-65
2024/02/11 04:47:40;;;;;;;45.10;20.77;;;;;;;;;;5067498;28;20033;-66
2024/02/11 04:50:10;;;;;;;44.40;22.38;;;;;;;;;;5068327;28;20023;-65
2024/02/11 04:52:36;;;;;;;47.80;20.48;;;;;;;;;;5054747;28;20016;-65
2024/02/11 04:55:02;;;;;;;35.03;19.10;;;;;;;;;;5072771;28;20035;-66
2024/02/11 04:57:28;;;;;;;20.42;11.93;;;;;;;;;;5061865;28;20458;-66
2024/02/11 04:59:54;;;;;;;22.20;11.23;;;;;;;;;;5067536;28;20105;-66
2024/02/11 05:02:20;;;;;;;13.45;7.25;;;;;;;;;;5071848;28;20093;-65
2024/02/11 05:04:47;;;;;;;13.85;6.25;;;;;;;;;;5069648;28;20029;-65
2024/02/11 05:07:13;;;;;;;11.52;5.60;;;;;;;;;;5066590;28;20392;-65
2024/02/11 05:09:45;;;;;;;3.85;2.72;;;;;;;;;;5067683;28;20440;-64
2024/02/11 05:12:11;;;;;;;11.40;2.80;;;;;;;;;;5065888;28;20362;-65
2024/02/11 05:14:37;;;;;;;2.30;1.30;;;;;;;;;;5067188;28;20494;-65
2024/02/11 05:17:03;;;;;;;1.17;1.08;;;;;;;;;;5066117;28;20052;-64
2024/02/11 05:19:32;;;;;;;0.77;0.63;;;;;;;;;;5074585;28;20104;-65
2024/02/11 05:22:00;;;;;;;1.02;0.47;;;;;;;;;;5062500;28;20016;-65
2024/02/11 05:24:29;;;;;;;0.52;0.40;;;;;;;;;;5066574;28;20032;-65
2024/02/11 05:26:55;;;;;;;0.95;0.30;;;;;;;;;;5065004;28;20025;-65
2024/02/11 05:29:22;;;;;;;2.25;0.30;;;;;;;;;;5065457;28;20539;-65
2024/02/11 05:31:48;;;;;;;3.13;0.73;;;;;;;;;;5072566;28;20021;-66
2024/02/11 05:34:13;;;;;;;6.95;1.17;;;;;;;;;;5070691;28;20028;-66
2024/02/11 05:36:43;;;;;;;2.17;1.08;;;;;;;;;;5075630;28;20386;-65
2024/02/11 05:39:09;;;;;;;7.80;1.42;;;;;;;;;;5063461;28;20059;-65
2024/02/11 05:41:35;;;;;;;10.85;1.10;;;;;;;;;;5068766;28;20163;-65
2024/02/11 05:44:01;;;;;;;7.78;1.90;;;;;;;;;;5043723;28;20048;-65
2024/02/11 05:46:27;;;;;;;6.93;1.27;;;;;;;;;;5072305;28;20052;-65
2024/02/11 05:48:53;;;;;;;12.77;1.45;;;;;;;;;;5043986;28;20040;-65
2024/02/11 05:51:19;;;;;;;10.30;1.42;;;;;;;;;;5067109;28;20100;-66
2024/02/11 05:53:46;;;;;;;12.05;1.77;;;;;;;;;;5066931;28;20506;-65
2024/02/11 05:56:13;;;;;;;6.65;1.42;;;;;;;;;;5067242;28;20013;-65
2024/02/11 05:58:39;;;;;;;8.48;1.88;;;;;;;;;;5065783;28;20398;-65
2024/02/11 06:01:05;;;;;;;8.75;2.15;;;;;;;;;;5070007;28;20031;-65
2024/02/11 06:03:32;;;;;;;12.35;2.08;;;;;;;;;;5066445;28;20032;-65
2024/02/11 06:05:58;;;;;;;8.38;1.70;;;;;;;;;;5051973;28;20024;-65
2024/02/11 06:08:25;;;;;;;13.75;2.45;;;;;;;;;;5068614;28;20371;-65
2024/02/11 06:10:51;;;;;;;8.88;1.48;;;;;;;;;;5065664;28;20394;-64
2024/02/11 06:13:18;;;;;;;9.63;1.90;;;;;;;;;;5068687;28;20459;-65
2024/02/11 06:15:44;;;;;;;7.15;2.15;;;;;;;;;;5065932;28;20062;-65
2024/02/11 06:18:10;;;;;;;6.20;1.65;;;;;;;;;;5064686;28;20093;-65
2024/02/11 06:20:38;;;;;;;14.27;2.40;;;;;;;;;;5072088;28;20099;-67
2024/02/11 06:23:05;;;;;;;7.82;2.10;;;;;;;;;;5063197;28;20024;-65
2024/02/11 06:25:31;;;;;;;7.60;2.88;;;;;;;;;;5070683;28;20385;-65
2024/02/11 06:27:57;;;;;;;17.65;3.05;;;;;;;;;;5064096;28;20032;-64
2024/02/11 06:30:24;;;;;;;10.65;3.03;;;;;;;;;;5062825;28;20025;-65
2024/02/11 06:32:50;;;;;;;11.23;3.28;;;;;;;;;;5066963;28;20017;-65
2024/02/11 06:35:18;;;;;;;14.57;3.13;;;;;;;;;;5068125;28;20031;-65
2024/02/11 06:37:45;;;;;;;14.07;2.90;;;;;;;;;;5069869;28;20533;-65
2024/02/11 06:40:22;;;;;;;10.77;2.83;;;;;;;;;;5070600;28;20109;-65
2024/02/11 06:42:48;;;;;;;11.65;2.83;;;;;;;;;;5069097;28;20070;-65
2024/02/11 06:45:14;;;;;;;18.20;3.67;;;;;;;;;;5063778;28;20103;-65
2024/02/11 06:47:40;;;;;;;13.63;3.15;;;;;;;;;;5069712;28;20193;-65
2024/02/11 06:50:14;;;;;;;11.95;3.53;;;;;;;;;;5065957;28;20039;-65
2024/02/11 06:52:40;;;;;;;13.40;2.78;;;;;;;;;;5054015;28;20032;-65
2024/02/11 06:55:09;;;;;;;10.75;4.18;;;;;;;;;;5068234;28;20501;-64
2024/02/11 06:57:37;;;;;;;12.77;3.45;;;;;;;;;;5070360;28;20137;-65
2024/02/11 07:00:08;;;;;;;15.45;3.40;;;;;;;;;;5068772;28;20742;-65
2024/02/11 07:02:34;;;;;;;24.02;3.53;;;;;;;;;;5066811;28;20040;-67
2024/02/11 07:05:00;;;;;;;18.40;3.50;;;;;;;;;;5067665;28;20125;-65
2024/02/11 07:07:26;;;;;;;13.05;3.65;;;;;;;;;;5065619;28;20025;-65
2024/02/11 07:09:52;;;;;;;12.13;2.92;;;;;;;;;;5048864;28;20133;-65
2024/02/11 07:12:21;;;;;;;10.38;3.25;;;;;;;;;;5072142;28;20025;-65
2024/02/11 07:14:47;;;;;;;9.60;2.78;;;;;;;;;;5071797;28;20028;-65
2024/02/11 07:17:17;;;;;;;10.48;2.65;;;;;;;;;;5066993;28;20394;-65
2024/02/11 07:19:43;;;;;;;13.63;2.55;;;;;;;;;;5075119;28;20020;-65
2024/02/11 07:22:09;;;;;;;13.35;3.60;;;;;;;;;;5070991;28;20403;-65
2024/02/11 07:24:41;;;;;;;10.05;2.78;;;;;;;;;;5064966;28;20039;-65
2024/02/11 07:27:08;;;;;;;17.30;2.53;;;;;;;;;;5066938;28;20021;-64
2024/02/11 07:29:34;;;;;;;11.07;2.42;;;;;;;;;;5074061;28;20020;-65
2024/02/11 07:32:02;;;;;;;10.73;3.08;;;;;;;;;;5070517;28;20029;-65
2024/02/11 07:34:29;;;;;;;9.25;2.97;;;;;;;;;;5070548;28;20025;-64
2024/02/11 07:36:55;;;;;;;15.27;3.50;;;;;;;;;;5074980;28;20071;-64
2024/02/11 07:39:21;;;;;;;6.85;2.95;;;;;;;;;;5075551;28;20020;-65
2024/02/11 07:41:47;;;;;;;13.63;3.22;;;;;;;;;;5069289;28;20024;-65
2024/02/11 07:44:13;;;;;;;10.73;3.63;;;;;;;;;;5070530;28;20503;-65
2024/02/11 07:46:39;;;;;;;9.60;3.95;;;;;;;;;;5074301;28;20363;-65
2024/02/11 07:49:05;;;;;;;13.82;3.45;;;;;;;;;;5067320;28;20602;-65
2024/02/11 07:51:31;;;;;;;12.93;4.13;;;;;;;;;;5065455;28;20020;-65
2024/02/11 07:53:58;;;;;;;15.90;3.30;;;;;;;;;;5070001;28;20774;-65
2024/02/11 07:56:25;;;;;;;17.00;3.53;;;;;;;;;;5074110;28;20067;-65
2024/02/11 07:58:51;;;;;;;15.00;4.45;;;;;;;;;;5073386;28;20020;-65
2024/02/11 08:01:17;;;;;;;10.65;3.30;;;;;;;;;;5067235;28;20021;-64
2024/02/11 08:03:43;;;;;;;17.80;3.13;;;;;;;;;;5070166;28;20016;-65
2024/02/11 08:06:09;;;;;;;13.95;3.63;;;;;;;;;;5064933;28;20483;-65
2024/02/11 08:08:37;;;;;;;11.00;3.97;;;;;;;;;;5074899;28;20024;-65
2024/02/11 08:11:03;;;;;;;10.65;3.85;;;;;;;;;;5065795;28;20109;-65
2024/02/11 08:13:31;;;;;;;7.82;3.42;;;;;;;;;;5071975;28;20028;-65
2024/02/11 08:15:57;;;;;;;9.60;4.03;;;;;;;;;;5049078;28;20394;-64
2024/02/11 08:18:23;;;;;;;10.60;3.90;;;;;;;;;;5069991;28;20021;-65
2024/02/11 08:20:49;;;;;;;22.98;4.40;;;;;;;;;;5079290;28;20035;-64
2024/02/11 08:23:15;;;;;;;11.27;4.22;;;;;;;;;;5076726;28;20029;-60
2024/02/11 08:25:42;;;;;;;16.10;4.80;;;;;;;;;;5070102;28;20024;-58
2024/02/11 08:28:09;;;;;;;19.38;4.60;;;;;;;;;;5063396;28;20367;-58
2024/02/11 08:30:36;;;;;;;10.57;3.95;;;;;;;;;;5052835;28;20043;-59
2024/02/11 08:33:02;;;;;;;11.88;3.85;;;;;;;;;;5070823;28;20028;-59
2024/02/11 08:35:28;;;;;;;11.63;3.95;;;;;;;;;;5075333;28;20032;-60
2024/02/11 08:37:56;;;;;;;12.13;3.83;;;;;;;;;;5071195;28;20394;-60
2024/02/11 08:40:22;;;;;;;9.88;3.55;;;;;;;;;;5070064;28;20020;-60
2024/02/11 08:42:49;;;;;;;15.13;3.90;;;;;;;;;;5072291;28;20534;-60
2024/02/11 08:45:15;;;;;;;8.80;3.63;;;;;;;;;;5061636;28;20486;-60
2024/02/11 08:47:41;;;;;;;15.15;4.20;;;;;;;;;;5065220;28;20027;-60
2024/02/11 08:50:07;;;;;;;9.10;3.78;;;;;;;;;;5051655;28;20103;-60
2024/02/11 08:52:35;;;;;;;12.30;4.20;;;;;;;;;;5063659;28;20050;-59
2024/02/11 08:55:01;;;;;;;11.65;4.53;;;;;;;;;;5051288;28;20035;-60
2024/02/11 08:57:27;;;;;;;9.90;4.40;;;;;;;;;;5072957;28;20092;-60
2024/02/11 08:59:56;;;;;;;12.52;4.95;;;;;;;;;;5065619;28;20032;-59
2024/02/11 09:02:25;;;;;;;15.07;4.65;;;;;;;;;;5069115;28;20047;-60
2024/02/11 09:04:52;;;;;;;11.63;4.70;;;;;;;;;;5074725;28;20025;-59
2024/02/11 09:07:20;;;;;;;14.90;5.20;;;;;;;;;;5069955;28;20074;-58
2024/02/11 09:09:46;;;;;;;12.10;5.50;;;;;;;;;;5067277;28;20108;-59
2024/02/11 09:12:13;;;;;;;12.90;5.10;;;;;;;;;;5070167;28;20107;-60
2024/02/11 09:14:39;;;;;;;13.73;5.30;;;;;;;;;;5078527;28;20032;-59
2024/02/11 09:17:07;;;;;;;13.20;4.88;;;;;;;;;;5063639;28;20050;-60
2024/02/11 09:19:33;;;;;;;15.10;5.70;;;;;;;;;;5070584;28;20027;-57
2024/02/11 09:22:05;;;;;;;12.98;5.40;;;;;;;;;;5068306;28;20044;-60
2024/02/11 09:24:31;;;;;;;13.60;5.70;;;;;;;;;;5060738;28;20463;-59
2024/02/11 09:26:57;;;;;;;15.63;5.70;;;;;;;;;;5067432;28;20108;-59
2024/02/11 09:29:23;;;;;;;17.92;6.40;;;;;;;;;;5069295;28;20017;-60
2024/02/11 09:31:49;;;;;;;19.20;6.18;;;;;;;;;;5065033;28;20020;-60
2024/02/11 09:34:16;;;;;;;16.15;6.38;;;;;;;;;;5067868;28;20024;-59
2024/02/11 09:36:42;;;;;;;20.08;5.78;;;;;;;;;;5071592;28;20017;-58
2024/02/11 09:39:10;;;;;;;12.98;6.30;;;;;;;;;;5066615;28;20078;-61
2024/02/11 09:41:37;;;;;;;12.23;6.20;;;;;;;;;;5068711;28;20393;-59
2024/02/11 09:44:04;;;;;;;17.40;5.75;;;;;;;;;;5068520;28;20036;-60
2024/02/11 09:46:35;;;;;;;20.63;7.00;;;;;;;;;;5070858;28;20051;-60
2024/02/11 09:49:02;;;;;;;17.80;7.68;;;;;;;;;;5052849;28;20044;-60
2024/02/11 09:51:29;;;;;;;17.58;7.05;;;;;;;;;;5065018;28;20025;-60
2024/02/11 09:53:56;;;;;;;15.57;6.60;;;;;;;;;;5062253;28;20093;-61
2024/02/11 09:56:23;;;;;;;12.23;5.95;;;;;;;;;;5063797;28;20029;-60
2024/02/11 09:58:51;;;;;;;12.32;6.18;;;;;;;;;;5065390;28;20035;-60
2024/02/11 10:01:17;;;;;;;18.67;6.60;;;;;;;;;;5063221;28;20033;-61
2024/02/11 10:03:45;;;;;;;14.57;6.80;;;;;;;;;;5069114;28;20078;-60
2024/02/11 10:06:11;;;;;;;11.45;6.80;;;;;;;;;;5062826;28;20090;-60
2024/02/11 10:08:37;;;;;;;15.93;6.47;;;;;;;;;;5064136;28;20058;-60
2024/02/11 10:11:07;;;;;;;15.50;7.88;;;;;;;;;;5065180;28;20107;-59
2024/02/11 10:13:35;;;;;;;15.35;7.00;;;;;;;;;;5064432;28;20071;-61
2024/02/11 10:16:05;;;;;;;15.82;7.68;;;;;;;;;;5068381;28;20466;-62
2024/02/11 10:18:33;;;;;;;15.25;7.32;;;;;;;;;;5065693;28;20024;-60
2024/02/11 10:20:59;;;;;;;16.88;7.38;;;;;;;;;;5063527;28;20021;-59
2024/02/11 10:23:24;;;;;;;13.23;6.85;;;;;;;;;;5069385;28;20086;-57
2024/02/11 10:25:51;;;;;;;14.02;7.53;;;;;;;;;;5061759;28;20045;-65
2024/02/11 10:28:17;;;;;;;13.15;7.95;;;;;;;;;;5070852;28;20066;-64
2024/02/11 10:30:43;;;;;;;17.70;7.88;;;;;;;;;;5064284;28;20048;-65
2024/02/11 10:33:10;;;;;;;17.60;7.10;;;;;;;;;;5065107;28;20078;-65
2024/02/11 10:35:36;;;;;;;22.70;7.60;;;;;;;;;;5064528;28;20072;-65
2024/02/11 10:38:06;;;;;;;19.80;7.22;;;;;;;;;;5062380;28;20032;-66
2024/02/11 10:40:35;;;;;;;16.65;6.93;;;;;;;;;;5047572;28;20103;-66
2024/02/11 10:43:03;;;;;;;12.30;6.95;;;;;;;;;;5065069;28;20056;-65
2024/02/11 10:45:29;;;;;;;12.82;6.88;;;;;;;;;;5064891;28;20021;-66
2024/02/11 10:47:55;;;;;;;13.98;6.63;;;;;;;;;;5071323;28;20040;-66
2024/02/11 10:50:21;;;;;;;12.68;6.72;;;;;;;;;;5066767;28;20033;-66
2024/02/11 10:52:48;;;;;;;18.75;6.72;;;;;;;;;;5069367;28;20485;-65
2024/02/11 10:55:16;;;;;;;12.73;6.72;;;;;;;;;;5068717;28;20488;-65
2024/02/11 10:57:53;;;;;;;14.00;6.97;;;;;;;;;;5069452;28;20024;-65
2024/02/11 11:00:20;;;;;;;15.52;6.68;;;;;;;;;;5067887;28;20449;-65
2024/02/11 11:02:48;;;;;;;13.23;7.25;;;;;;;;;;5072275;28;20052;-65
2024/02/11 11:05:17;;;;;;;13.25;6.03;;;;;;;;;;5069790;28;20071;-65
2024/02/11 11:07:46;;;;;;;13.80;5.82;;;;;;;;;;5068566;28;20103;-65
2024/02/11 11:10:12;;;;;;;12.43;6.05;;;;;;;;;;5074757;28;20030;-65
2024/02/11 11:12:54;;;;;;;15.77;6.22;;;;;;;;;;5069286;28;20024;-64
2024/02/11 11:15:30;;;;;;;10.20;6.07;;;;;;;;;;5066596;28;20094;-64
2024/02/11 11:17:59;;;;;;;11.25;5.47;;;;;;;;;;5069323;28;20020;-65
2024/02/11 11:20:24;;;;;;;11.73;5.57;;;;;;;;;;5065220;28;20028;-65
2024/02/11 11:22:51;;;;;;;9.48;5.35;;;;;;;;;;5069131;28;20097;-65
2024/02/11 11:25:23;;;;;;;10.88;5.93;;;;;;;;;;5068548;28;20099;-63
2024/02/11 11:27:50;;;;;;;9.02;4.50;;;;;;;;;;5072796;28;20105;-65
2024/02/11 11:30:16;;;;;;;11.30;4.97;;;;;;;;;;5068356;28;20064;-65
2024/02/11 11:32:46;;;;;;;8.20;4.57;;;;;;;;;;5068213;28;20516;-64
2024/02/11 11:35:17;;;;;;;9.57;3.80;;;;;;;;;;5068262;28;20033;-64
2024/02/11 11:37:43;;;;;;;8.90;3.80;;;;;;;;;;5067961;28;20066;-65
2024/02/11 11:40:10;;;;;;;5.95;3.15;;;;;;;;;;5072514;28;20433;-65
2024/02/11 11:42:36;;;;;;;4.88;3.13;;;;;;;;;;5069188;28;20020;-65
2024/02/11 11:45:06;;;;;;;4.20;2.20;;;;;;;;;;5070334;28;20028;-66
2024/02/11 11:47:35;;;;;;;7.50;3.03;;;;;;;;;;5059355;28;20035;-66
2024/02/11 11:50:06;;;;;;;5.53;3.08;;;;;;;;;;5071505;28;20037;-65
2024/02/11 11:52:33;;;;;;;9.00;3.03;;;;;;;;;;5067015;28;20493;-66
2024/02/11 11:54:59;;;;;;;7.43;2.65;;;;;;;;;;5073961;28;20115;-66
2024/02/11 11:57:25;;;;;;;6.68;2.65;;;;;;;;;;5068125;28;20028;-64
2024/02/11 11:59:58;;;;;;;6.22;2.85;;;;;;;;;;5070588;28;20020;-60
2024/02/11 12:02:27;;;;;;;5.07;2.42;;;;;;;;;;5060510;28;20430;-60
2024/02/11 12:04:54;;;;;;;2.97;2.13;;;;;;;;;;5069233;28;20040;-60
2024/02/11 12:07:23;;;;;;;7.32;2.28;;;;;;;;;;5064479;28;20024;-60
2024/02/11 12:09:51;;;;;;;4.78;2.55;;;;;;;;;;5065421;28;20167;-61
2024/02/11 12:12:17;;;;;;;4.63;2.90;;;;;;;;;;5066368;28;20458;-61
2024/02/11 12:14:43;;;;;;;6.20;2.95;;;;;;;;;;5061129;28;20121;-60
2024/02/11 12:17:09;;;;;;;5.72;2.80;;;;;;;;;;5071516;28;20031;-61
2024/02/11 12:19:38;;;;;;;9.38;3.03;;;;;;;;;;5063092;28;20025;-60
2024/02/11 12:22:06;;;;;;;7.95;3.03;;;;;;;;;;5072477;28;20025;-61
2024/02/11 12:24:33;;;;;;;6.38;2.63;;;;;;;;;;5069028;28;20559;-61
2024/02/11 12:27:01;;;;;;;6.60;2.83;;;;;;;;;;5063102;28;20487;-61
2024/02/11 12:29:27;;;;;;;4.50;2.17;;;;;;;;;;5068153;28;20057;-61
2024/02/11 12:31:53;;;;;;;5.93;2.20;;;;;;;;;;5065791;28;20068;-62
2024/02/11 12:34:21;;;;;;;6.10;1.92;;;;;;;;;;5069042;28;20087;-60
2024/02/11 12:36:47;;;;;;;6.75;1.90;;;;;;;;;;5067490;28;20033;-61
2024/02/11 12:39:13;;;;;;;4.03;1.75;;;;;;;;;;5063589;28;20029;-61
2024/02/11 12:41:40;;;;;;;2.90;1.42;;;;;;;;;;5064552;28;20025;-60
2024/02/11 12:44:07;;;;;;;5.50;1.75;;;;;;;;;;5063060;28;20024;-60
2024/02/11 12:46:33;;;;;;;3.53;1.45;;;;;;;;;;5070930;28;20046;-61
2024/02/11 12:48:59;;;;;;;5.50;1.80;;;;;;;;;;5069062;28;20028;-61
2024/02/11 12:51:25;;;;;;;7.53;1.75;;;;;;;;;;5068301;28;20068;-61
2024/02/11 12:53:52;;;;;;;7.90;1.80;;;;;;;;;;5066675;28;20114;-60
2024/02/11 12:56:18;;;;;;;6.40;1.63;;;;;;;;;;5069539;28;20032;-66
2024/02/11 12:58:45;;;;;;;3.00;1.67;;;;;;;;;;5060426;28;20021;-66
2024/02/11 13:01:11;;;;;;;3.55;1.33;;;;;;;;;;5063823;28;20077;-67
2024/02/11 13:03:38;;;;;;;1.75;1.00;;;;;;;;;;5065643;28;20569;-66
2024/02/11 13:06:05;;;;;;;4.55;1.05;;;;;;;;;;5063013;28;20102;-67
2024/02/11 13:08:31;;;;;;;3.47;1.00;;;;;;;;;;5058679;28;20029;-66
2024/02/11 13:10:59;;;;;;;1.58;0.80;;;;;;;;;;5043818;28;20501;-68
2024/02/11 13:13:25;;;;;;;3.33;0.50;;;;;;;;;;5065313;28;20039;-66
2024/02/11 13:15:51;;;;;;;3.20;1.75;;;;;;;;;;5064177;28;20033;-67
2024/02/11 13:18:18;;;;;;;0.90;0.60;;;;;;;;;;5067631;28;20021;-67
2024/02/11 13:20:45;;;;;;;3.85;0.70;;;;;;;;;;5057829;28;20159;-67
2024/02/11 13:23:11;;;;;;;1.65;0.70;;;;;;;;;;5056168;28;20032;-67
2024/02/11 13:25:38;;;;;;;1.33;0.55;;;;;;;;;;5059353;28;20134;-67
2024/02/11 13:28:04;;;;;;;1.55;0.52;;;;;;;;;;5047496;28;20787;-67
2024/02/11 13:30:31;;;;;;;1.08;0.50;;;;;;;;;;5064478;28;20032;-66
2024/02/11 13:32:57;;;;;;;3.00;0.77;;;;;;;;;;5062570;28;20025;-67
2024/02/11 13:35:23;;;;;;;0.40;0.40;;;;;;;;;;5059559;28;20743;-67
2024/02/11 13:37:49;;;;;;;1.15;0.68;;;;;;;;;;5043476;28;20051;-66
2024/02/11 13:40:16;;;;;;;2.80;0.77;;;;;;;;;;5060639;28;20064;-66
2024/02/11 13:42:42;;;;;;;5.63;1.50;;;;;;;;;;5062755;28;20111;-67
2024/02/11 13:45:13;;;;;;;2.30;0.50;;;;;;;;;;5048845;28;20475;-66
2024/02/11 13:47:40;;;;;;;4.38;0.60;;;;;;;;;;5069093;28;20035;-66
2024/02/11 13:50:06;;;;;;;1.92;0.70;;;;;;;;;;5063775;28;20025;-67
2024/02/11 13:52:33;;;;;;;2.25;0.50;;;;;;;;;;5068974;28;20040;-66
2024/02/11 13:55:00;;;;;;;1.15;0.50;;;;;;;;;;5063662;28;20493;-67
2024/02/11 13:57:26;;;;;;;0.82;0.47;;;;;;;;;;5073610;28;20032;-67
2024/02/11 13:59:52;;;;;;;1.15;0.70;;;;;;;;;;5063997;28;20134;-67
2024/02/11 14:02:19;;;;;;;2.50;0.77;;;;;;;;;;5064887;28;20627;-67
2024/02/11 14:04:48;;;;;;;1.50;0.63;;;;;;;;;;5067507;28;20028;-66
2024/02/11 14:07:14;;;;;;;1.27;0.60;;;;;;;;;;5073845;28;20430;-67
2024/02/11 14:09:42;;;;;;;2.55;0.50;;;;;;;;;;5061074;28;20021;-66
2024/02/11 14:12:09;;;;;;;1.15;0.50;;;;;;;;;;5060299;28;20402;-66
2024/02/11 14:14:39;;;;;;;0.60;0.50;;;;;;;;;;5069816;28;20482;-66
2024/02/11 14:17:05;;;;;;;1.75;0.82;;;;;;;;;;5055539;28;20040;-66
2024/02/11 14:19:31;;;;;;;1.63;0.60;;;;;;;;;;5063937;28;20379;-66
2024/02/11 14:22:03;;;;;;;5.13;0.80;;;;;;;;;;5066324;28;20033;-67
2024/02/11 14:24:32;;;;;;;1.63;0.50;;;;;;;;;;5067558;28;20470;-66
2024/02/11 14:27:00;;;;;;;1.38;0.50;;;;;;;;;;5062781;28;20444;-66